createdAt,value
2018-09-20T00:01:47.310Z,33.10
2018-09-20T00:04:16.931Z,33.20
2018-09-20T00:06:45.888Z,33.20
2018-09-20T00:09:14.735Z,33.40
2018-09-20T00:11:43.586Z,33.40
2018-09-20T00:14:12.954Z,33.40
2018-09-20T00:16:42.102Z,33.50
2018-09-20T00:19:10.973Z,33.50
2018-09-20T00:21:40.096Z,33.50
2018-09-20T00:24:09.207Z,33.70
2018-09-20T00:26:38.069Z,33.70
2018-09-20T00:29:06.912Z,33.70
2018-09-20T00:31:35.791Z,33.80
2018-09-20T00:34:04.647Z,33.80
2018-09-20T00:36:33.539Z,33.70
2018-09-20T00:39:02.387Z,33.70
2018-09-20T00:41:31.905Z,33.50
2018-09-20T00:44:00.783Z,33.70
2018-09-20T00:46:29.707Z,33.70
2018-09-20T00:48:58.586Z,33.50
2018-09-20T00:51:27.464Z,33.80
2018-09-20T00:53:56.672Z,33.80
2018-09-20T00:56:25.540Z,34.00
2018-09-20T00:58:54.864Z,34.00
2018-09-20T01:01:23.917Z,34.10
2018-09-20T01:03:52.824Z,34.10
2018-09-20T01:06:22.209Z,34.00
2018-09-20T01:08:51.134Z,34.00
2018-09-20T01:11:20.812Z,34.00
2018-09-20T01:13:49.887Z,34.00
2018-09-20T01:16:18.766Z,34.00
2018-09-20T01:18:47.615Z,34.00
2018-09-20T01:21:16.785Z,34.00
2018-09-20T01:23:45.984Z,34.00
2018-09-20T01:26:15.355Z,33.80
2018-09-20T01:28:44.202Z,33.80
2018-09-20T01:31:13.087Z,34.00
2018-09-20T01:33:42.187Z,34.00
2018-09-20T01:36:11.051Z,34.10
2018-09-20T01:38:39.935Z,34.20
2018-09-20T01:41:08.795Z,34.50
2018-09-20T01:43:37.878Z,34.50
2018-09-20T01:46:06.778Z,34.20
2018-09-20T01:48:35.679Z,34.40
2018-09-20T01:51:04.799Z,34.20
2018-09-20T01:53:33.653Z,34.10
2018-09-20T01:56:02.495Z,34.10
2018-09-20T01:58:31.911Z,34.10
2018-09-20T02:01:01.080Z,34.20
2018-09-20T02:03:29.941Z,34.20
2018-09-20T02:05:59.096Z,34.10
2018-09-20T02:08:27.960Z,34.00
2018-09-20T02:10:56.810Z,34.40
2018-09-20T02:13:25.689Z,34.10
2018-09-20T02:15:54.547Z,34.10
2018-09-20T02:18:23.442Z,34.10
2018-09-20T02:20:52.594Z,34.10
2018-09-20T02:23:21.532Z,34.10
2018-09-20T02:25:50.384Z,34.20
2018-09-20T02:28:19.230Z,34.20
2018-09-20T02:30:48.182Z,34.10
2018-09-20T02:33:17.074Z,34.20
2018-09-20T02:35:46.304Z,34.20
2018-09-20T02:38:15.526Z,34.40
2018-09-20T02:40:44.522Z,34.20
2018-09-20T02:43:13.392Z,34.20
2018-09-20T02:45:42.255Z,34.50
2018-09-20T02:48:11.123Z,34.70
2018-09-20T02:50:39.984Z,35.00
2018-09-20T02:53:08.928Z,34.50
2018-09-20T02:55:37.771Z,34.70
2018-09-20T02:58:06.659Z,34.70
2018-09-20T03:00:35.522Z,34.80
2018-09-20T03:03:04.462Z,34.80
2018-09-20T03:05:33.324Z,34.70
2018-09-20T03:08:02.174Z,34.80
2018-09-20T03:10:31.059Z,34.80
2018-09-20T03:12:59.949Z,35.00
2018-09-20T03:15:29.123Z,35.00
2018-09-20T03:17:58.312Z,35.30
2018-09-20T03:20:27.188Z,35.00
2018-09-20T03:22:56.060Z,35.00
2018-09-20T03:25:24.914Z,35.10
2018-09-20T03:27:54.050Z,35.10
2018-09-20T03:30:23.185Z,35.40
2018-09-20T03:32:52.492Z,35.40
2018-09-20T03:35:21.683Z,35.40
2018-09-20T03:37:50.568Z,35.10
2018-09-20T03:40:19.425Z,35.10
2018-09-20T03:42:48.817Z,35.60
2018-09-20T03:45:17.688Z,35.60
2018-09-20T03:47:46.586Z,35.60
2018-09-20T03:50:15.499Z,35.40
2018-09-20T03:52:44.378Z,35.70
2018-09-20T03:55:13.276Z,35.60
2018-09-20T03:57:42.142Z,36.00
2018-09-20T04:00:11.022Z,36.00
2018-09-20T04:02:40.175Z,36.00
2018-09-20T04:05:09.059Z,36.30
2018-09-20T04:07:37.907Z,36.50
2018-09-20T04:10:07.265Z,36.20
2018-09-20T04:12:36.151Z,36.50
2018-09-20T04:15:05.703Z,36.30
2018-09-20T04:17:34.543Z,36.20
2018-09-20T04:20:03.459Z,36.20
2018-09-20T04:22:32.909Z,36.50
2018-09-20T04:25:01.940Z,36.30
2018-09-20T04:27:30.802Z,36.60
2018-09-20T04:29:59.715Z,36.50
2018-09-20T04:32:28.628Z,36.60
2018-09-20T04:34:57.539Z,36.50
2018-09-20T04:37:26.708Z,36.50
2018-09-20T04:39:55.624Z,36.60
2018-09-20T04:42:24.803Z,36.60
2018-09-20T04:44:53.711Z,36.30
2018-09-20T04:47:22.574Z,36.60
2018-09-20T04:49:51.443Z,36.80
2018-09-20T04:52:20.357Z,36.90
2018-09-20T04:54:49.220Z,37.10
2018-09-20T04:57:18.099Z,37.20
2018-09-20T04:59:47.043Z,37.40
2018-09-20T05:02:15.978Z,37.10
2018-09-20T05:04:44.859Z,37.20
2018-09-20T05:07:13.733Z,37.20
2018-09-20T05:09:43.210Z,37.50
2018-09-20T05:12:14.074Z,37.50
2018-09-20T05:14:43.194Z,37.50
2018-09-20T05:17:12.368Z,37.50
2018-09-20T05:19:41.572Z,37.40
2018-09-20T05:22:10.480Z,37.60
2018-09-20T05:24:39.465Z,37.90
2018-09-20T05:27:08.920Z,37.60
2018-09-20T05:29:38.213Z,37.90
2018-09-20T05:32:07.551Z,37.60
2018-09-20T05:34:36.434Z,37.90
2018-09-20T05:37:05.814Z,37.90
2018-09-20T05:39:34.812Z,37.80
2018-09-20T05:42:03.743Z,37.60
2018-09-20T05:44:33.092Z,37.50
2018-09-20T05:47:02.203Z,37.40
2018-09-20T05:49:31.347Z,37.40
2018-09-20T05:52:00.250Z,37.20
2018-09-20T05:54:29.179Z,37.50
2018-09-20T05:56:58.083Z,37.10
2018-09-20T05:59:26.952Z,37.50
2018-09-20T06:01:55.891Z,37.50
2018-09-20T06:04:24.800Z,37.60
2018-09-20T06:06:53.717Z,37.60
2018-09-20T06:09:22.833Z,38.40
2018-09-20T06:11:51.708Z,38.70
2018-09-20T06:14:20.906Z,39.30
2018-09-20T06:16:49.791Z,39.90
2018-09-20T06:19:18.998Z,40.30
2018-09-20T06:21:48.211Z,41.20
2018-09-20T06:24:17.398Z,41.80
2018-09-20T06:26:46.291Z,41.60
2018-09-20T06:29:15.179Z,41.60
2018-09-20T06:31:44.082Z,41.80
2018-09-20T06:34:12.961Z,42.10
2018-09-20T06:36:41.952Z,42.10
2018-09-20T06:39:12.486Z,41.80
2018-09-20T06:41:41.923Z,41.80
2018-09-20T06:44:11.117Z,41.60
2018-09-20T06:46:40.300Z,41.80
2018-09-20T06:49:09.473Z,42.10
2018-09-20T06:51:38.403Z,42.40
2018-09-20T06:54:07.568Z,42.40
2018-09-20T06:56:36.540Z,42.20
2018-09-20T06:59:05.619Z,42.10
2018-09-20T07:01:34.539Z,42.10
2018-09-20T07:04:03.539Z,41.90
2018-09-20T07:06:32.943Z,41.90
2018-09-20T07:09:01.816Z,42.40
2018-09-20T07:11:30.697Z,43.10
2018-09-20T07:13:59.838Z,43.90
2018-09-20T07:16:29.044Z,43.30
2018-09-20T07:18:57.947Z,42.50
2018-09-20T07:21:26.852Z,41.20
2018-09-20T07:23:56.289Z,40.20
2018-09-20T07:26:25.539Z,38.40
2018-09-20T07:28:54.446Z,37.60
2018-09-20T07:31:23.461Z,37.10
2018-09-20T07:33:52.346Z,36.30
2018-09-20T07:36:21.948Z,36.20
2018-09-20T07:38:50.873Z,36.30
2018-09-20T07:41:19.751Z,36.80
2018-09-20T07:43:48.677Z,37.10
2018-09-20T07:46:17.601Z,36.60
2018-09-20T07:48:46.532Z,35.70
2018-09-20T07:51:15.739Z,35.30
2018-09-20T07:53:44.652Z,34.50
2018-09-20T07:56:13.771Z,34.50
2018-09-20T07:58:42.855Z,33.70
2018-09-20T08:01:13.670Z,33.20
2018-09-20T08:03:42.799Z,32.00
2018-09-20T08:06:12.295Z,31.60
2018-09-20T08:08:41.674Z,30.60
2018-09-20T08:11:10.963Z,29.90
2018-09-20T08:13:39.817Z,29.10
2018-09-20T08:16:09.010Z,28.90
2018-09-20T08:18:37.937Z,28.40
2018-09-20T08:21:07.235Z,27.50
2018-09-20T08:23:36.107Z,26.70
2018-09-20T08:26:05.055Z,25.70
2018-09-20T08:28:33.993Z,25.00
2018-09-20T08:31:02.858Z,23.50
2018-09-20T08:33:31.775Z,23.80
2018-09-20T08:36:00.958Z,23.50
2018-09-20T08:38:29.821Z,22.90
2018-09-20T08:40:59.041Z,22.30
2018-09-20T08:43:27.935Z,21.90
2018-09-20T08:45:57.151Z,22.60
2018-09-20T08:48:26.223Z,23.70
2018-09-20T08:50:55.503Z,24.00
2018-09-20T08:53:24.419Z,24.50
2018-09-20T08:55:53.301Z,25.00
2018-09-20T08:58:22.168Z,24.80
2018-09-20T09:00:51.317Z,24.60
2018-09-20T09:03:20.243Z,24.50
2018-09-20T09:05:49.629Z,24.60
2018-09-20T09:08:18.760Z,24.60
2018-09-20T09:10:47.623Z,24.60
2018-09-20T09:13:16.898Z,24.60
2018-09-20T09:15:46.247Z,24.40
2018-09-20T09:18:15.127Z,23.40
2018-09-20T09:20:44.289Z,22.90
2018-09-20T09:23:13.180Z,22.90
2018-09-20T09:25:42.068Z,22.50
2018-09-20T09:28:10.950Z,22.80
2018-09-20T09:30:39.843Z,22.50
2018-09-20T09:33:08.707Z,22.10
2018-09-20T09:35:38.338Z,22.30
2018-09-20T09:38:07.459Z,22.70
2018-09-20T09:40:36.367Z,22.80
2018-09-20T09:43:05.526Z,22.80
2018-09-20T09:45:34.405Z,22.00
2018-09-20T09:48:03.536Z,22.30
2018-09-20T09:50:33.506Z,21.80
2018-09-20T09:53:02.367Z,22.00
2018-09-20T09:55:31.219Z,21.80
2018-09-20T09:58:00.102Z,21.80
2018-09-20T10:00:35.903Z,22.50
2018-09-20T10:03:05.255Z,23.30
2018-09-20T10:05:34.438Z,24.20
2018-09-20T10:08:03.332Z,24.70
2018-09-20T10:10:32.347Z,24.30
2018-09-20T10:13:01.229Z,24.10
2018-09-20T10:15:30.126Z,23.60
2018-09-20T10:17:58.994Z,23.10
2018-09-20T10:20:27.924Z,22.80
2018-09-20T10:22:58.861Z,22.40
2018-09-20T10:25:27.781Z,22.30
2018-09-20T10:27:57.388Z,21.90
2018-09-20T10:30:26.787Z,21.50
2018-09-20T10:32:55.723Z,21.50
2018-09-20T10:35:24.819Z,21.10
2018-09-20T10:37:54.270Z,21.00
2018-09-20T10:40:23.314Z,20.80
2018-09-20T10:42:52.196Z,20.90
2018-09-20T10:45:21.063Z,20.70
2018-09-20T10:47:50.398Z,20.50
2018-09-20T10:50:19.267Z,20.50
2018-09-20T10:52:48.138Z,20.10
2018-09-20T10:55:17.035Z,19.70
2018-09-20T10:57:45.936Z,19.80
2018-09-20T11:00:14.822Z,19.70
2018-09-20T11:02:43.740Z,19.60
2018-09-20T11:05:12.647Z,19.60
2018-09-20T11:07:41.614Z,19.90
2018-09-20T11:10:11.341Z,19.70
2018-09-20T11:12:40.921Z,19.40
2018-09-20T11:15:10.139Z,19.60
2018-09-20T11:17:39.158Z,19.60
2018-09-20T11:20:08.154Z,19.70
2018-09-20T11:22:37.099Z,19.60
2018-09-20T11:25:06.290Z,19.50
2018-09-20T11:27:35.168Z,19.60
2018-09-20T11:30:04.139Z,19.40
2018-09-20T11:32:33.030Z,19.10
2018-09-20T11:35:02.237Z,19.30
2018-09-20T11:37:31.390Z,18.90
2018-09-20T11:40:00.485Z,19.50
2018-09-20T11:42:29.989Z,19.20
2018-09-20T11:44:59.437Z,19.20
2018-09-20T11:47:28.442Z,18.90
2018-09-20T11:49:57.675Z,19.20
2018-09-20T11:52:26.914Z,18.70
2018-09-20T11:54:56.058Z,19.20
2018-09-20T11:57:24.935Z,19.10
2018-09-20T11:59:54.107Z,19.10
2018-09-20T12:02:22.992Z,18.70
2018-09-20T12:04:51.883Z,18.90
2018-09-20T12:07:21.080Z,18.60
2018-09-20T12:09:50.276Z,18.40
2018-09-20T12:12:19.495Z,18.30
2018-09-20T12:14:48.689Z,18.30
2018-09-20T12:17:17.619Z,17.90
2018-09-20T12:19:46.514Z,17.80
2018-09-20T12:22:15.389Z,18.00
2018-09-20T12:24:44.263Z,17.70
2018-09-20T12:27:13.466Z,18.00
2018-09-20T12:29:42.386Z,17.30
2018-09-20T12:32:11.366Z,17.80
2018-09-20T12:34:40.791Z,17.70
2018-09-20T12:37:09.680Z,18.00
2018-09-20T12:39:38.881Z,18.00
2018-09-20T12:42:14.272Z,18.00
2018-09-20T12:44:43.513Z,18.20
2018-09-20T12:47:12.744Z,18.00
2018-09-20T12:49:42.800Z,17.90
2018-09-20T12:52:11.999Z,18.10
2018-09-20T12:54:40.999Z,18.10
2018-09-20T12:57:10.059Z,17.70
2018-09-20T12:59:38.967Z,18.10
2018-09-20T13:02:08.483Z,18.10
2018-09-20T13:05:08.757Z,18.20
2018-09-20T13:07:37.911Z,18.00
2018-09-20T13:10:07.080Z,17.70
2018-09-20T13:12:36.216Z,17.50
2018-09-20T13:15:05.537Z,17.70
2018-09-20T13:17:34.495Z,17.20
2018-09-20T13:20:03.702Z,17.80
2018-09-20T13:22:32.580Z,17.90
2018-09-20T13:25:01.703Z,18.00
2018-09-20T13:27:31.064Z,18.10
2018-09-20T13:30:00.216Z,17.80
2018-09-20T13:32:29.439Z,18.10
2018-09-20T13:34:58.637Z,18.20
2018-09-20T13:37:27.830Z,18.30
2018-09-20T13:39:56.818Z,18.30
2018-09-20T13:42:25.716Z,18.20
2018-09-20T13:44:54.863Z,18.10
2018-09-20T13:47:24.279Z,18.10
2018-09-20T13:49:53.570Z,17.50
2018-09-20T13:52:22.466Z,17.40
2018-09-20T13:54:53.544Z,17.60
2018-09-20T13:57:22.448Z,17.90
2018-09-20T13:59:51.569Z,17.80
2018-09-20T14:02:20.457Z,18.40
2018-09-20T14:04:49.374Z,18.40
2018-09-20T14:07:18.271Z,18.40
2018-09-20T14:09:47.188Z,18.60
2018-09-20T14:12:16.080Z,18.80
2018-09-20T14:14:45.306Z,18.90
2018-09-20T14:17:14.505Z,19.00
2018-09-20T14:19:43.942Z,19.30
2018-09-20T14:22:12.955Z,19.50
2018-09-20T14:24:42.144Z,19.80
2018-09-20T14:27:11.115Z,19.90
2018-09-20T14:29:40.012Z,19.90
2018-09-20T14:32:08.916Z,19.90
2018-09-20T14:34:38.215Z,20.10
2018-09-20T14:37:07.184Z,19.90
2018-09-20T14:39:36.104Z,19.50
2018-09-20T14:42:04.987Z,19.70
2018-09-20T14:44:33.943Z,19.50
2018-09-20T14:47:02.843Z,19.50
2018-09-20T14:49:31.751Z,19.20
2018-09-20T14:52:00.706Z,19.70
2018-09-20T14:54:29.899Z,19.60
2018-09-20T14:56:59.145Z,19.70
2018-09-20T14:59:28.094Z,19.50
2018-09-20T15:01:57.391Z,19.70
2018-09-20T15:04:26.512Z,19.80
2018-09-20T15:06:55.391Z,19.80
2018-09-20T15:09:24.324Z,20.00
2018-09-20T15:11:53.465Z,20.30
2018-09-20T15:14:22.617Z,20.10
2018-09-20T15:16:52.092Z,20.10
2018-09-20T15:19:21.044Z,19.50
2018-09-20T15:21:50.406Z,19.60
2018-09-20T15:24:19.339Z,19.40
2018-09-20T15:26:48.444Z,19.70
2018-09-20T15:29:17.597Z,19.70
2018-09-20T15:31:46.506Z,20.10
2018-09-20T15:34:15.448Z,20.30
2018-09-20T15:36:45.125Z,20.50
2018-09-20T15:39:14.111Z,20.70
2018-09-20T15:41:43.483Z,20.90
2018-09-20T15:44:12.395Z,21.10
2018-09-20T15:46:41.411Z,21.20
2018-09-20T15:49:10.375Z,21.30
2018-09-20T15:51:39.263Z,21.30
2018-09-20T15:54:08.861Z,21.30
2018-09-20T15:56:37.764Z,21.40
2018-09-20T15:59:06.653Z,21.60
2018-09-20T16:01:35.641Z,21.70
2018-09-20T16:04:04.536Z,21.40
2018-09-20T16:06:33.481Z,21.40
2018-09-20T16:09:02.687Z,21.70
2018-09-20T16:11:31.912Z,21.80
2018-09-20T16:14:00.808Z,21.90
2018-09-20T16:16:29.699Z,22.00
2018-09-20T16:18:58.880Z,22.00
2018-09-20T16:21:27.783Z,22.10
2018-09-20T16:23:56.895Z,22.00
2018-09-20T16:26:25.867Z,22.20
2018-09-20T16:29:08.275Z,22.20
2018-09-20T16:31:52.911Z,22.20
2018-09-20T16:34:36.387Z,22.20
2018-09-20T16:37:15.123Z,22.40
2018-09-20T16:39:45.953Z,22.40
2018-09-20T16:42:16.043Z,22.50
2018-09-20T16:44:44.920Z,22.70
2018-09-20T16:47:13.907Z,22.50
2018-09-20T16:49:43.244Z,22.80
2018-09-20T16:52:12.114Z,22.70
2018-09-20T16:54:41.610Z,22.90
2018-09-20T16:57:10.570Z,22.80
2018-09-20T16:59:39.744Z,22.90
2018-09-20T17:02:08.803Z,22.80
2018-09-20T17:04:38.004Z,22.90
2018-09-20T17:07:06.932Z,22.90
2018-09-20T17:09:35.814Z,22.90
2018-09-20T17:12:04.764Z,22.80
2018-09-20T17:14:33.993Z,23.00
2018-09-20T17:17:03.019Z,23.00
2018-09-20T17:19:31.936Z,23.10
2018-09-20T17:22:00.790Z,23.10
2018-09-20T17:24:29.730Z,23.00
2018-09-20T17:26:58.684Z,23.20
2018-09-20T17:29:27.928Z,23.10
2018-09-20T17:31:56.862Z,23.10
2018-09-20T17:34:26.012Z,23.30
2018-09-20T17:36:56.036Z,23.50
2018-09-20T17:39:26.773Z,23.50
2018-09-20T17:41:57.035Z,23.50
2018-09-20T17:44:25.940Z,23.50
2018-09-20T17:46:54.860Z,23.50
2018-09-20T17:49:25.571Z,23.70
2018-09-20T17:51:55.007Z,23.90
2018-09-20T17:54:24.208Z,24.30
2018-09-20T17:56:53.554Z,24.50
2018-09-20T17:59:22.783Z,24.60
2018-09-20T18:01:51.707Z,24.80
2018-09-20T18:04:20.685Z,25.10
2018-09-20T18:06:49.638Z,25.40
2018-09-20T18:09:18.976Z,25.80
2018-09-20T18:11:47.979Z,25.90
2018-09-20T18:14:16.967Z,26.00
2018-09-20T18:16:46.152Z,25.90
2018-09-20T18:19:15.062Z,26.00
2018-09-20T18:21:43.986Z,26.00
2018-09-20T18:24:13.204Z,26.00
2018-09-20T18:26:42.230Z,26.40
2018-09-20T18:29:11.123Z,26.70
2018-09-20T18:31:40.116Z,26.90
2018-09-20T18:34:09.048Z,27.10
2018-09-20T18:36:38.099Z,27.10
2018-09-20T18:39:08.946Z,27.00
2018-09-20T18:41:37.835Z,26.90
2018-09-20T18:44:07.103Z,26.70
2018-09-20T18:46:36.294Z,26.70
2018-09-20T18:49:05.384Z,26.80
2018-09-20T18:51:34.307Z,26.80
2018-09-20T18:54:03.223Z,26.80
2018-09-20T18:56:32.507Z,26.90
2018-09-20T18:59:01.601Z,26.90
2018-09-20T19:01:34.090Z,27.00
2018-09-20T19:04:10.323Z,27.10
2018-09-20T19:06:40.165Z,27.30
2018-09-20T19:09:10.433Z,27.40
2018-09-20T19:11:39.741Z,27.30
2018-09-20T19:14:09.285Z,27.70
2018-09-20T19:16:38.709Z,28.00
2018-09-20T19:19:07.679Z,28.30
2018-09-20T19:21:38.609Z,28.40
2018-09-20T19:24:07.777Z,28.40
2018-09-20T19:26:37.544Z,28.50
2018-09-20T19:29:06.477Z,28.40
2018-09-20T19:31:35.456Z,28.50
2018-09-20T19:34:04.355Z,28.60
2018-09-20T19:36:33.605Z,28.50
2018-09-20T19:39:02.585Z,28.40
2018-09-20T19:41:31.893Z,28.30
2018-09-20T19:44:02.301Z,28.40
2018-09-20T19:46:31.736Z,28.50
2018-09-20T19:49:00.771Z,28.70
2018-09-20T19:51:29.911Z,28.70
2018-09-20T19:53:58.853Z,28.80
2018-09-20T19:56:28.270Z,28.80
2018-09-20T19:58:57.620Z,29.00
2018-09-20T20:01:26.517Z,29.60
2018-09-20T20:03:56.474Z,29.30
2018-09-20T20:06:25.857Z,29.10
2018-09-20T20:08:55.871Z,29.10
2018-09-20T20:11:25.356Z,29.50
2018-09-20T20:13:55.830Z,29.40
2018-09-20T20:16:24.695Z,29.30
2018-09-20T20:18:53.860Z,29.40
2018-09-20T20:21:23.211Z,29.30
2018-09-20T20:23:52.447Z,29.30
2018-09-20T20:26:21.559Z,29.20
2018-09-20T20:28:50.512Z,29.40
2018-09-20T20:31:19.651Z,29.40
2018-09-20T20:33:48.573Z,29.80
2018-09-20T20:36:17.751Z,29.80
2018-09-20T20:38:47.057Z,30.10
2018-09-20T20:41:16.102Z,30.30
2018-09-20T20:43:45.110Z,30.60
2018-09-20T20:46:14.351Z,30.80
2018-09-20T20:48:44.266Z,31.00
2018-09-20T20:51:13.543Z,31.90
2018-09-20T20:53:42.592Z,32.20
2018-09-20T20:56:12.192Z,32.20
2018-09-20T20:58:41.147Z,32.50
2018-09-20T21:01:16.052Z,32.30
2018-09-20T21:03:45.224Z,31.60
2018-09-20T21:06:14.508Z,32.00
2018-09-20T21:08:43.611Z,32.80
2018-09-20T21:11:12.814Z,32.20
2018-09-20T21:13:41.934Z,31.90
2018-09-20T21:16:11.316Z,31.70
2018-09-20T21:18:40.862Z,31.40
2018-09-20T21:21:10.607Z,31.40
2018-09-20T21:23:39.589Z,31.90
2018-09-20T21:26:08.674Z,31.90
2018-09-20T21:28:37.694Z,31.70
2018-09-20T21:31:06.976Z,31.90
2018-09-20T21:33:36.133Z,32.20
2018-09-20T21:36:05.365Z,32.20
2018-09-20T21:38:34.280Z,32.30
2018-09-20T21:41:03.473Z,32.00
2018-09-20T21:43:32.914Z,31.60
2018-09-20T21:46:01.884Z,31.40
2018-09-20T21:48:30.727Z,31.10
2018-09-20T21:50:59.719Z,30.80
2018-09-20T21:53:28.574Z,30.70
2018-09-20T21:55:57.615Z,30.60
2018-09-20T21:58:26.506Z,30.60
2018-09-20T22:01:01.669Z,30.60
2018-09-20T22:03:32.935Z,30.60
2018-09-20T22:06:01.984Z,30.70
2018-09-20T22:08:31.139Z,30.70
2018-09-20T22:11:00.268Z,30.80
2018-09-20T22:13:29.496Z,31.00
2018-09-20T22:15:58.370Z,31.10
2018-09-20T22:18:27.519Z,31.60
2018-09-20T22:20:56.413Z,31.70
2018-09-20T22:23:25.299Z,31.90
2018-09-20T22:25:54.416Z,32.20
2018-09-20T22:28:23.333Z,32.30
2018-09-20T22:30:52.236Z,32.80
2018-09-20T22:33:21.237Z,32.90
2018-09-20T22:35:50.140Z,33.10
2018-09-20T22:38:19.052Z,33.40
2018-09-20T22:40:48.233Z,33.50
2018-09-20T22:43:17.150Z,34.00
2018-09-20T22:45:46.062Z,34.40
2018-09-20T22:48:15.153Z,34.50
2018-09-20T22:50:44.143Z,34.80
2018-09-20T22:53:13.040Z,34.80
2018-09-20T22:55:42.169Z,34.80
2018-09-20T22:58:11.317Z,34.80
2018-09-20T23:00:40.191Z,34.80
2018-09-20T23:03:09.064Z,35.10
2018-09-20T23:05:37.925Z,34.80
2018-09-20T23:08:07.060Z,35.00
2018-09-20T23:10:35.993Z,35.00
2018-09-20T23:13:04.872Z,34.80
2018-09-20T23:15:33.755Z,34.50
2018-09-20T23:18:02.642Z,34.40
2018-09-20T23:20:31.534Z,34.50
2018-09-20T23:23:00.727Z,34.40
2018-09-20T23:25:29.604Z,34.40
2018-09-20T23:27:58.691Z,34.20
2018-09-20T23:30:27.583Z,34.40
2018-09-20T23:32:56.861Z,34.10
2018-09-20T23:35:25.732Z,34.10
2018-09-20T23:37:54.611Z,34.20
2018-09-20T23:40:23.577Z,34.40
2018-09-20T23:42:52.853Z,35.00
2018-09-20T23:45:21.751Z,35.00
2018-09-20T23:47:50.983Z,35.30
2018-09-20T23:50:20.441Z,35.00
2018-09-20T23:52:49.539Z,35.30
2018-09-20T23:55:18.399Z,35.40
2018-09-20T23:57:47.308Z,35.40
